Time;durP1;ratioP1;P1;durP2;ratioP2;P2;SDS_P1;SDS_P2;PMS_P1;PMS_P2;Temp;Humidity;BMP_temperature;BMP_pressure;BME280_temperature;BME280_humidity;BME280_pressure;Samples;Min_cycle;Max_cycle;Signal;HPM_P1;HPM_P2
2022/06/03 00:01:35;;;;;;;5.20;3.33;;;10.20;99.90;;;;;;4973398;28;20058;-34
2022/06/03 00:04:25;;;;;;;9.80;3.47;;;10.20;99.90;;;;;;4972086;28;20104;-34
2022/06/03 00:07:12;;;;;;;6.33;3.50;;;10.10;99.90;;;;;;4939068;28;20067;-34
2022/06/03 00:09:56;;;;;;;6.07;3.40;;;10.10;99.90;;;;;;4959348;28;20053;-34
2022/06/03 00:12:27;;;;;;;7.43;4.00;;;10.10;99.90;;;;;;4972162;28;20058;-34
2022/06/03 00:14:53;;;;;;;;;;;10.00;99.90;;;;;;4978944;28;20133;-34
2022/06/03 00:17:43;;;;;;;4.33;3.43;;;10.00;99.90;;;;;;4946062;28;20006;-34
2022/06/03 00:20:47;;;;;;;5.20;4.13;;;10.00;99.90;;;;;;4953779;28;20050;-34
2022/06/03 00:23:39;;;;;;;8.07;3.97;;;9.90;99.90;;;;;;4962042;28;20131;-34
2022/06/03 00:26:32;;;;;;;6.87;4.07;;;9.90;99.90;;;;;;4969492;28;20404;-35
2022/06/03 00:29:16;;;;;;;5.78;3.95;;;9.90;99.90;;;;;;4970309;28;20502;-34
2022/06/03 00:32:07;;;;;;;5.47;4.20;;;9.90;99.90;;;;;;4972561;28;20050;-34
2022/06/03 00:35:07;;;;;;;4.60;4.13;;;9.90;99.90;;;;;;4971938;28;20051;-34
2022/06/03 00:37:48;;;;;;;8.83;4.10;;;9.90;99.90;;;;;;4938022;28;20093;-34
2022/06/03 00:40:25;;;;;;;5.35;4.40;;;9.80;99.90;;;;;;4953369;28;20105;-34
2022/06/03 00:43:00;;;;;;;7.43;4.07;;;9.80;99.90;;;;;;4960518;28;20064;-34
2022/06/03 00:45:51;;;;;;;4.82;4.13;;;9.80;99.90;;;;;;4971317;28;20105;-34
2022/06/03 00:48:40;;;;;;;6.90;4.47;;;9.80;99.90;;;;;;4956427;28;20105;-34
2022/06/03 00:51:24;;;;;;;7.03;4.40;;;9.80;99.90;;;;;;4960338;28;20499;-34
2022/06/03 00:54:23;;;;;;;8.53;4.10;;;9.70;99.90;;;;;;4968495;28;20066;-34
2022/06/03 00:57:03;;;;;;;5.87;4.17;;;9.70;99.90;;;;;;4938217;28;20055;-34
2022/06/03 00:59:56;;;;;;;5.80;4.73;;;9.70;99.90;;;;;;4953474;28;20055;-34
2022/06/03 01:02:28;;;;;;;5.33;4.10;;;9.70;99.90;;;;;;4971628;28;20057;-34
2022/06/03 01:05:29;;;;;;;8.43;4.40;;;9.70;99.90;;;;;;4972001;28;20093;-34
2022/06/03 01:08:15;;;;;;;10.53;4.80;;;9.70;99.90;;;;;;4943326;28;20047;-34
2022/06/03 01:11:09;;;;;;;6.17;4.20;;;9.60;99.90;;;;;;4970860;28;20050;-34
2022/06/03 01:14:02;;;;;;;9.77;4.50;;;9.60;99.90;;;;;;4951828;28;20136;-34
2022/06/03 01:17:22;;;;;;;6.03;3.63;;;9.60;99.90;;;;;;4950810;28;20498;-34
2022/06/03 01:20:04;;;;;;;7.50;4.20;;;9.60;99.90;;;;;;4978035;28;20165;-34
2022/06/03 01:22:51;;;;;;;4.97;4.47;;;9.60;99.90;;;;;;4950445;28;20051;-34
2022/06/03 01:25:44;;;;;;;9.17;4.77;;;9.60;99.90;;;;;;4965237;28;20051;-34
2022/06/03 01:28:27;;;;;;;9.93;4.97;;;9.60;99.90;;;;;;4946903;28;20058;-34
2022/06/03 01:31:34;;;;;;;6.30;4.73;;;9.50;99.90;;;;;;4971513;28;20050;-33
2022/06/03 01:34:17;;;;;;;6.87;5.27;;;9.50;99.90;;;;;;4970646;28;20133;-33
2022/06/03 01:37:15;;;;;;;7.23;5.00;;;9.40;99.90;;;;;;4956420;28;20054;-34
2022/06/03 01:39:59;;;;;;;8.93;5.27;;;9.40;99.90;;;;;;4977066;28;20057;-34
2022/06/03 01:42:44;;;;;;;8.67;5.80;;;9.50;99.90;;;;;;4970797;28;20570;-34
2022/06/03 01:45:28;;;;;;;6.60;5.53;;;9.40;99.90;;;;;;4971472;28;20053;-34
2022/06/03 01:48:19;;;;;;;10.87;5.73;;;9.40;99.90;;;;;;4954144;28;20054;-34
2022/06/03 01:51:13;;;;;;;10.00;6.00;;;9.40;99.90;;;;;;4971702;28;20489;-34
2022/06/03 01:53:44;;;;;;;8.50;5.57;;;9.40;99.90;;;;;;4962564;28;20059;-34
2022/06/03 01:56:37;;;;;;;7.90;5.37;;;9.40;99.90;;;;;;4957004;28;20055;-34
2022/06/03 01:59:21;;;;;;;7.97;5.70;;;9.30;99.90;;;;;;4954170;28;20514;-34
2022/06/03 02:02:07;;;;;;;8.53;6.43;;;9.40;99.90;;;;;;4964304;28;20051;-34
2022/06/03 02:05:17;;;;;;;8.70;6.17;;;9.30;99.90;;;;;;4941660;28;20056;-34
2022/06/03 02:07:49;;;;;;;6.80;5.17;;;9.30;99.90;;;;;;4938664;28;20055;-34
2022/06/03 02:10:33;;;;;;;;;;;9.30;99.90;;;;;;4952524;28;20133;-34
2022/06/03 02:13:32;;;;;;;9.27;5.40;;;9.30;99.90;;;;;;4970656;28;19995;-34
2022/06/03 02:16:07;;;;;;;11.87;5.37;;;9.30;99.90;;;;;;4975209;28;20062;-34
2022/06/03 02:18:50;;;;;;;7.00;5.67;;;9.30;99.90;;;;;;4941222;28;20755;-33
2022/06/03 02:21:35;;;;;;;7.93;5.60;;;9.20;99.90;;;;;;4951924;28;20533;-33
2022/06/03 02:24:20;;;;;;;6.40;5.50;;;9.30;99.90;;;;;;4966912;28;20051;-33
2022/06/03 02:27:22;;;;;;;12.77;5.80;;;9.20;99.90;;;;;;4944555;28;20047;-34
2022/06/03 02:33:15;;;;;;;7.47;5.10;;;9.20;99.90;;;;;;4960993;28;19953;-34
2022/06/03 02:35:58;;;;;;;9.77;5.50;;;9.10;99.90;;;;;;4970819;28;20046;-33
2022/06/03 02:38:32;;;;;;;10.47;5.70;;;9.10;99.90;;;;;;4955972;28;20050;-33
2022/06/03 02:41:36;;;;;;;9.47;5.80;;;9.10;99.90;;;;;;4970751;28;20043;-34
2022/06/03 02:44:35;;;;;;;6.73;5.40;;;9.10;99.90;;;;;;4970049;28;20614;-33
2022/06/03 02:47:29;;;;;;;7.63;5.77;;;9.00;99.90;;;;;;4949272;28;20055;-34
2022/06/03 02:50:20;;;;;;;10.70;5.63;;;9.10;99.90;;;;;;4950320;28;20577;-33
2022/06/03 02:52:55;;;;;;;13.53;6.77;;;9.00;99.90;;;;;;4967871;28;20054;-34
2022/06/03 02:56:06;;;;;;;10.57;6.53;;;9.00;99.90;;;;;;4950915;28;20055;-34
2022/06/03 02:58:56;;;;;;;8.40;5.93;;;9.00;99.90;;;;;;4946652;28;20106;-34
2022/06/03 03:01:43;;;;;;;11.40;6.10;;;9.00;99.90;;;;;;4954979;28;20510;-33
2022/06/03 03:04:15;;;;;;;7.80;5.63;;;9.00;99.90;;;;;;4968191;28;20053;-33
2022/06/03 03:07:11;;;;;;;8.00;6.00;;;9.00;99.90;;;;;;4939355;28;20051;-34
2022/06/03 03:10:05;;;;;;;8.37;5.40;;;9.00;99.90;;;;;;4971898;28;20047;-33
2022/06/03 03:13:01;;;;;;;9.03;5.33;;;9.00;99.90;;;;;;4973390;28;20050;-33
2022/06/03 03:15:30;;;;;;;6.83;5.80;;;8.90;99.90;;;;;;4973554;28;20046;-33
2022/06/03 03:18:04;;;;;;;8.00;5.80;;;8.90;99.90;;;;;;4938945;28;20082;-33
2022/06/03 03:21:04;;;;;;;8.83;6.33;;;8.90;99.90;;;;;;4968227;28;20066;-34
2022/06/03 03:23:45;;;;;;;10.83;6.60;;;8.90;99.90;;;;;;4972767;28;20046;-34
2022/06/03 03:26:41;;;;;;;9.05;6.53;;;8.90;99.90;;;;;;4966261;28;20536;-34
2022/06/03 03:29:37;;;;;;;11.33;6.03;;;8.90;99.90;;;;;;4971483;28;20110;-33
2022/06/03 03:32:19;;;;;;;7.00;6.20;;;8.90;99.90;;;;;;4973904;28;20067;-33
2022/06/03 03:34:47;;;;;;;9.00;6.10;;;8.90;99.90;;;;;;4972761;28;20046;-33
2022/06/03 03:37:34;;;;;;;8.60;6.30;;;8.90;99.90;;;;;;4957256;28;20407;-34
2022/06/03 03:40:18;;;;;;;11.07;6.47;;;8.90;99.90;;;;;;4973266;28;20047;-34
2022/06/03 03:43:28;;;;;;;7.73;6.37;;;8.90;99.90;;;;;;4972625;28;20066;-34
2022/06/03 03:46:06;;;;;;;8.90;6.03;;;8.90;99.90;;;;;;4972622;28;20042;-33
2022/06/03 03:48:40;;;;;;;7.67;5.67;;;8.90;99.90;;;;;;4961956;28;20510;-33
2022/06/03 03:51:09;;;;;;;8.73;6.07;;;8.90;99.90;;;;;;4973263;28;20038;-33
2022/06/03 03:53:45;;;;;;;8.37;6.37;;;8.90;99.90;;;;;;4972213;28;20057;-34
2022/06/03 03:56:48;;;;;;;9.33;6.57;;;8.90;99.90;;;;;;4965700;28;20594;-34
2022/06/03 03:59:39;;;;;;;6.57;5.90;;;8.90;99.90;;;;;;4958241;28;20062;-34
2022/06/03 04:02:21;;;;;;;10.20;6.40;;;8.90;99.90;;;;;;4952105;28;20145;-34
2022/06/03 04:05:11;;;;;;;9.80;6.53;;;9.00;99.90;;;;;;4972162;28;20430;-33
2022/06/03 04:08:15;;;;;;;11.23;6.60;;;9.00;99.90;;;;;;4954821;28;20097;-33
2022/06/03 04:11:15;;;;;;;8.63;6.50;;;9.00;99.90;;;;;;4967373;28;20047;-34
2022/06/03 04:13:52;;;;;;;10.53;6.30;;;9.00;99.90;;;;;;4955512;28;20134;-33
2022/06/03 04:16:27;;;;;;;9.60;7.33;;;9.10;99.90;;;;;;4952659;28;20061;-34
2022/06/03 04:19:12;;;;;;;9.60;7.37;;;9.10;99.90;;;;;;4960188;28;20039;-33
2022/06/03 04:22:05;;;;;;;10.50;6.70;;;9.20;99.90;;;;;;4970685;28;20059;-34
2022/06/03 04:24:40;;;;;;;9.60;6.87;;;9.20;99.90;;;;;;4971917;28;20051;-33
2022/06/03 04:27:45;;;;;;;8.30;6.57;;;9.20;99.90;;;;;;4955970;28;20411;-34
2022/06/03 04:30:23;;;;;;;12.17;6.47;;;9.30;99.90;;;;;;4972789;28;20065;-34
2022/06/03 04:33:05;;;;;;;10.10;7.00;;;9.30;99.90;;;;;;4971977;28;20410;-34
2022/06/03 04:35:33;;;;;;;7.90;6.70;;;9.50;99.90;;;;;;4969619;28;20493;-33
2022/06/03 04:38:17;;;;;;;11.30;6.73;;;9.40;99.90;;;;;;4957030;28;20516;-33
2022/06/03 04:40:58;;;;;;;12.87;6.60;;;9.40;99.90;;;;;;4970723;28;20141;-34
2022/06/03 04:43:57;;;;;;;10.52;6.43;;;9.50;99.90;;;;;;4971846;28;20070;-33
2022/06/03 04:46:57;;;;;;;8.27;6.47;;;9.50;99.90;;;;;;4960062;28;20141;-34
2022/06/03 04:49:57;;;;;;;9.27;6.53;;;9.60;99.90;;;;;;4971466;28;20085;-34
2022/06/03 04:52:41;;;;;;;8.67;6.23;;;9.60;99.90;;;;;;4970180;28;20137;-34
2022/06/03 04:55:45;;;;;;;11.73;6.57;;;9.60;99.90;;;;;;4959324;28;20054;-34
2022/06/03 04:58:48;;;;;;;9.67;6.37;;;9.70;99.90;;;;;;4951672;28;20055;-34
2022/06/03 05:01:42;;;;;;;9.30;6.57;;;9.80;99.90;;;;;;4965461;28;20058;-33
2022/06/03 05:04:38;;;;;;;9.70;6.97;;;9.90;99.90;;;;;;4965021;28;20109;-34
2022/06/03 05:07:06;;;;;;;13.17;6.73;;;10.00;99.90;;;;;;4935636;28;20406;-35
2022/06/03 05:10:04;;;;;;;12.23;7.27;;;10.10;99.90;;;;;;4957400;28;20059;-33
2022/06/03 05:13:09;;;;;;;11.25;7.05;;;10.30;99.90;;;;;;4969353;28;20085;-34
2022/06/03 05:15:57;;;;;;;9.60;7.40;;;10.50;99.90;;;;;;4969811;28;20051;-34
2022/06/03 05:18:41;;;;;;;11.30;7.70;;;10.60;99.90;;;;;;4936654;28;20051;-34
2022/06/03 05:21:37;;;;;;;9.20;7.27;;;10.80;99.90;;;;;;4960081;28;20121;-34
2022/06/03 05:24:34;;;;;;;9.25;7.25;;;11.00;99.90;;;;;;4971034;28;20043;-34
2022/06/03 05:27:24;;;;;;;12.57;7.50;;;11.10;99.90;;;;;;4956283;28;20522;-34
2022/06/03 05:30:22;;;;;;;12.25;7.55;;;11.30;99.90;;;;;;4969251;28;20553;-34
2022/06/03 05:33:16;;;;;;;9.45;7.35;;;11.50;99.90;;;;;;4961707;28;20058;-34
2022/06/03 05:36:16;;;;;;;9.55;7.03;;;11.60;99.90;;;;;;4970063;28;20086;-34
2022/06/03 05:39:10;;;;;;;11.45;7.10;;;11.80;99.90;;;;;;4966968;28;20129;-34
2022/06/03 05:44:55;;;;;;;8.82;7.43;;;12.20;99.90;;;;;;4970435;28;20097;-34
2022/06/03 05:47:45;;;;;;;13.02;7.30;;;12.30;99.90;;;;;;4949271;28;20054;-35
2022/06/03 05:50:29;;;;;;;9.63;6.80;;;12.50;99.90;;;;;;4960213;28;20090;-34
2022/06/03 05:53:09;;;;;;;12.95;6.75;;;12.70;99.90;;;;;;4959764;28;20124;-34
2022/06/03 05:56:13;;;;;;;11.73;7.20;;;12.80;99.90;;;;;;4951151;29;20055;-34
2022/06/03 05:59:11;;;;;;;8.93;6.15;;;12.90;99.90;;;;;;4957788;28;20054;-35
2022/06/03 06:02:07;;;;;;;8.20;6.05;;;13.10;99.90;;;;;;4971146;28;20042;-34
2022/06/03 06:04:50;;;;;;;7.78;5.32;;;13.30;99.90;;;;;;4964602;28;20437;-35
2022/06/03 06:07:31;;;;;;;7.15;4.75;;;13.40;99.90;;;;;;4942879;28;20055;-35
2022/06/03 06:10:04;;;;;;;8.73;5.82;;;13.50;99.90;;;;;;4957992;28;20050;-35
2022/06/03 06:12:54;;;;;;;6.95;5.03;;;13.60;99.90;;;;;;4953586;28;20054;-35
2022/06/03 06:15:34;;;;;;;5.90;4.57;;;13.80;99.90;;;;;;4968708;28;20047;-35
2022/06/03 06:18:31;;;;;;;9.60;4.85;;;13.90;99.90;;;;;;4947636;28;20124;-35
2022/06/03 06:21:13;;;;;;;7.28;4.60;;;14.00;99.90;;;;;;4952777;28;20062;-35
2022/06/03 06:24:05;;;;;;;5.32;4.25;;;14.10;99.90;;;;;;4957134;28;20055;-35
2022/06/03 06:26:55;;;;;;;5.75;3.97;;;14.20;99.90;;;;;;4950147;28;20414;-35
2022/06/03 06:29:48;;;;;;;4.53;3.30;;;14.40;99.90;;;;;;4962537;28;20218;-35
2022/06/03 06:32:23;;;;;;;4.95;3.20;;;14.50;99.90;;;;;;4969621;28;20046;-35
2022/06/03 06:35:14;;;;;;;4.70;3.65;;;14.50;99.90;;;;;;4969687;28;20077;-35
2022/06/03 06:38:15;;;;;;;5.10;2.97;;;14.60;99.90;;;;;;4943973;28;20058;-35
2022/06/03 06:40:41;;;;;;;;;;;14.80;99.90;;;;;;4971376;28;20050;-35
2022/06/03 06:43:22;;;;;;;5.25;2.72;;;14.90;99.90;;;;;;4973075;28;20296;-35
2022/06/03 06:45:51;;;;;;;;;;;14.90;99.90;;;;;;4964238;28;20054;-35
2022/06/03 06:48:31;;;;;;;6.20;2.95;;;15.00;99.90;;;;;;4943146;28;19927;-35
2022/06/03 06:51:42;;;;;;;4.20;3.20;;;15.10;99.90;;;;;;4947144;29;20051;-35
2022/06/03 06:54:23;;;;;;;5.18;3.25;;;15.20;99.90;;;;;;4953209;28;20126;-35
2022/06/03 06:56:57;;;;;;;5.10;2.97;;;15.30;99.90;;;;;;4940317;28;20054;-35
2022/06/03 06:59:38;;;;;;;4.03;2.33;;;15.40;99.90;;;;;;4952622;28;20054;-35
2022/06/03 07:02:30;;;;;;;5.82;2.33;;;15.40;99.90;;;;;;4954594;28;20470;-36
2022/06/03 07:05:12;;;;;;;3.15;1.50;;;15.50;99.90;;;;;;4948151;29;20052;-35
2022/06/03 07:07:46;;;;;;;2.75;1.50;;;15.50;99.90;;;;;;4938943;28;20043;-35
2022/06/03 07:10:21;;;;;;;4.68;1.95;;;15.60;99.90;;;;;;4954947;28;20043;-35
2022/06/03 07:12:59;;;;;;;3.45;1.90;;;15.60;99.90;;;;;;4959671;28;20158;-35
2022/06/03 07:15:31;;;;;;;1.90;1.63;;;15.70;99.90;;;;;;4961816;28;20059;-35
2022/06/03 07:21:27;;;;;;;2.22;1.30;;;15.80;99.90;;;;;;4951637;28;20066;-35
2022/06/03 07:24:00;;;;;;;2.35;1.13;;;15.90;99.90;;;;;;4962897;28;20059;-35
2022/06/03 07:26:51;;;;;;;3.92;1.45;;;15.90;99.90;;;;;;4942198;28;20502;-35
2022/06/03 07:29:44;;;;;;;2.88;1.33;;;15.90;99.90;;;;;;4933996;29;20103;-35
2022/06/03 07:32:19;;;;;;;2.97;1.40;;;16.00;99.90;;;;;;4929512;28;20048;-35
2022/06/03 07:34:57;;;;;;;2.63;1.30;;;16.00;99.90;;;;;;4970096;28;20082;-35
2022/06/03 07:37:31;;;;;;;4.10;1.45;;;16.10;99.90;;;;;;4951560;28;20059;-35
2022/06/03 07:40:12;;;;;;;2.10;1.02;;;16.10;99.90;;;;;;4972871;28;20185;-35
2022/06/03 07:42:47;;;;;;;;;;;16.10;99.90;;;;;;4971093;28;20406;-35
2022/06/03 07:45:36;;;;;;;1.88;1.10;;;16.10;99.90;;;;;;4973490;28;19929;-35
2022/06/03 07:48:18;;;;;;;2.63;0.88;;;16.10;99.90;;;;;;4956858;28;20046;-35
2022/06/03 07:51:06;;;;;;;2.00;0.60;;;16.20;99.90;;;;;;4957081;28;20086;-35
2022/06/03 07:53:39;;;;;;;2.42;0.80;;;16.20;99.90;;;;;;4970130;28;20059;-35
2022/06/03 07:56:05;;;;;;;1.85;0.90;;;16.20;99.90;;;;;;4953917;28;20062;-35
2022/06/03 07:58:37;;;;;;;1.60;0.70;;;16.20;99.90;;;;;;4951584;28;20047;-35
2022/06/03 08:01:05;;;;;;;2.25;0.98;;;16.30;99.90;;;;;;4972801;28;20088;-35
2022/06/03 08:03:37;;;;;;;2.05;1.00;;;16.30;99.90;;;;;;4968921;28;20129;-35
2022/06/03 08:06:06;;;;;;;1.50;0.93;;;16.30;99.90;;;;;;4959960;28;20047;-35
2022/06/03 08:11:34;;;;;;;;;;;16.30;99.90;;;;;;4965928;28;20058;-35
2022/06/03 08:14:02;;;;;;;1.52;0.68;;;16.40;99.90;;;;;;4959644;28;19929;-35
2022/06/03 08:16:36;;;;;;;2.97;0.70;;;16.40;99.90;;;;;;4950850;28;20046;-35
2022/06/03 08:19:12;;;;;;;1.48;0.70;;;16.40;99.90;;;;;;4970505;28;20051;-36
2022/06/03 08:21:42;;;;;;;1.83;0.60;;;16.50;99.90;;;;;;4973086;28;20434;-35
2022/06/03 08:24:14;;;;;;;1.15;0.73;;;16.40;99.90;;;;;;4972083;28;20047;-35
2022/06/03 08:26:44;;;;;;;3.13;0.82;;;16.50;99.90;;;;;;4947676;28;20722;-35
2022/06/03 08:29:15;;;;;;;0.88;0.70;;;16.50;99.90;;;;;;4968372;28;20043;-36
2022/06/03 08:31:43;;;;;;;1.80;0.90;;;16.50;99.90;;;;;;4953809;28;20110;-35
2022/06/03 08:34:19;;;;;;;1.98;0.80;;;16.50;99.90;;;;;;4964441;28;20432;-35
2022/06/03 08:36:45;;;;;;;3.20;1.00;;;16.50;99.90;;;;;;4950863;28;20051;-35
2022/06/03 08:39:18;;;;;;;1.77;0.95;;;16.50;99.90;;;;;;4964302;28;20056;-35
2022/06/03 08:41:59;;;;;;;2.13;0.80;;;16.50;99.90;;;;;;4962136;28;20448;-36
2022/06/03 08:44:44;;;;;;;3.05;1.00;;;16.60;99.90;;;;;;4951346;28;20591;-35
2022/06/03 08:47:41;;;;;;;3.22;0.90;;;16.60;99.90;;;;;;4944852;28;20042;-36
2022/06/03 08:50:21;;;;;;;2.05;0.80;;;16.60;99.90;;;;;;4968955;28;20050;-35
2022/06/03 08:52:55;;;;;;;1.48;0.95;;;16.70;99.90;;;;;;4958776;28;20403;-36
2022/06/03 08:55:29;;;;;;;4.25;1.15;;;16.70;99.90;;;;;;4961211;28;20466;-35
2022/06/03 08:58:01;;;;;;;2.40;0.95;;;16.70;99.90;;;;;;4955851;28;20038;-35
2022/06/03 09:00:41;;;;;;;2.58;0.93;;;16.70;99.90;;;;;;5413645;23;20118;-36
2022/06/03 09:03:12;;;;;;;2.03;0.95;;;16.70;99.90;;;;;;4929471;28;20064;-36
2022/06/03 09:05:57;;;;;;;1.88;1.10;;;16.80;99.90;;;;;;4944057;29;20043;-36
2022/06/03 09:08:34;;;;;;;2.78;1.20;;;16.70;99.90;;;;;;4924610;28;20569;-36
2022/06/03 09:11:18;;;;;;;3.33;1.00;;;16.70;99.90;;;;;;4935517;29;20035;-36
2022/06/03 09:13:48;;;;;;;2.88;1.50;;;16.80;99.90;;;;;;4937794;28;20051;-36
2022/06/03 09:16:17;;;;;;;2.20;1.60;;;16.90;99.90;;;;;;4929414;29;20039;-36
2022/06/03 09:18:52;;;;;;;3.35;1.60;;;16.90;99.90;;;;;;4945443;28;20073;-36
2022/06/03 09:21:28;;;;;;;2.30;1.45;;;16.90;99.90;;;;;;4951111;28;20043;-36
2022/06/03 09:24:09;;;;;;;4.20;1.60;;;16.90;99.90;;;;;;4949843;28;20062;-36
2022/06/03 09:26:40;;;;;;;3.17;1.60;;;16.90;99.90;;;;;;4927422;28;20055;-36
2022/06/03 09:29:10;;;;;;;2.00;1.60;;;17.00;99.90;;;;;;4935698;28;20039;-36
2022/06/03 09:31:37;;;;;;;3.35;1.23;;;17.00;99.90;;;;;;4936749;28;20059;-36
2022/06/03 09:34:07;;;;;;;3.75;1.50;;;17.00;99.90;;;;;;4930583;28;20046;-37
2022/06/03 09:36:33;;;;;;;4.70;1.52;;;17.10;99.90;;;;;;4918496;29;20063;-36
2022/06/03 09:39:15;;;;;;;3.92;1.45;;;17.10;99.90;;;;;;4938459;28;20137;-37
2022/06/03 09:41:46;;;;;;;2.50;1.35;;;17.10;99.90;;;;;;4928479;29;20051;-36
2022/06/03 09:44:15;;;;;;;4.78;1.80;;;17.20;99.90;;;;;;4937874;29;20491;-37
2022/06/03 09:46:43;;;;;;;2.90;1.50;;;17.20;99.90;;;;;;4920465;29;20079;-36
2022/06/03 09:49:10;;;;;;;2.78;1.35;;;17.20;99.90;;;;;;4949372;28;20142;-36
2022/06/03 09:51:56;;;;;;;3.13;1.73;;;17.30;99.90;;;;;;4932781;29;20063;-36
2022/06/03 09:54:35;;;;;;;3.03;1.52;;;17.30;99.90;;;;;;4929027;28;20075;-36
2022/06/03 09:57:06;;;;;;;4.65;1.60;;;17.30;99.90;;;;;;4934186;28;20182;-36
2022/06/03 09:59:35;;;;;;;4.60;1.70;;;17.30;99.90;;;;;;4968511;28;20490;-37
2022/06/03 10:02:02;;;;;;;4.53;1.42;;;17.30;99.90;;;;;;4963757;28;20117;-36
2022/06/03 10:04:28;;;;;;;2.97;1.75;;;17.40;99.90;;;;;;4958128;28;20125;-37
2022/06/03 10:06:55;;;;;;;2.17;1.58;;;17.40;99.90;;;;;;4934897;29;20467;-37
2022/06/03 10:17:46;;;;;;;5.78;1.70;;;17.50;99.90;;;;;;4956402;28;20532;-37
2022/06/03 10:20:11;;;;;;;3.42;1.55;;;17.50;99.90;;;;;;4953779;28;20526;-37
2022/06/03 10:22:37;;;;;;;3.55;1.65;;;17.60;99.90;;;;;;4952058;28;20043;-36
2022/06/03 10:25:04;;;;;;;5.10;2.00;;;17.60;99.90;;;;;;4953668;28;20051;-37
2022/06/03 10:27:30;;;;;;;2.90;1.52;;;17.60;99.90;;;;;;4935892;28;20498;-36
2022/06/03 10:29:59;;;;;;;2.28;1.80;;;17.60;99.90;;;;;;4966829;28;20271;-37
2022/06/03 10:32:25;;;;;;;3.95;1.35;;;17.70;99.90;;;;;;4971975;28;20046;-37
2022/06/03 10:34:56;;;;;;;2.17;1.40;;;17.70;99.90;;;;;;4954896;28;20059;-36
2022/06/03 10:37:25;;;;;;;3.47;1.52;;;17.80;99.90;;;;;;4937852;28;20054;-37
2022/06/03 10:39:55;;;;;;;2.65;1.30;;;17.80;99.90;;;;;;4952006;29;20055;-37
2022/06/03 10:42:23;;;;;;;2.28;1.33;;;17.80;99.90;;;;;;4947030;28;20044;-37
2022/06/03 10:44:55;;;;;;;3.05;1.48;;;17.90;99.90;;;;;;4947786;29;20063;-37
2022/06/03 10:47:40;;;;;;;2.08;1.35;;;17.90;99.90;;;;;;4937256;28;20078;-37
2022/06/03 10:50:09;;;;;;;3.10;1.33;;;18.00;99.90;;;;;;4951194;28;20050;-37
2022/06/03 11:01:39;;;;;;;5.05;1.45;;;18.10;99.90;;;;;;4966333;28;20074;-37
2022/06/03 11:04:04;;;;;;;2.47;1.50;;;18.20;99.90;;;;;;4964564;28;20074;-36
2022/06/03 11:06:36;;;;;;;3.33;1.52;;;18.30;99.90;;;;;;4960344;28;20501;-37
2022/06/03 11:09:06;;;;;;;3.95;1.60;;;18.40;99.90;;;;;;4956673;28;20073;-37
2022/06/03 11:11:46;;;;;;;2.33;1.42;;;18.50;99.90;;;;;;4954279;28;20047;-37
2022/06/03 11:14:26;;;;;;;3.13;1.60;;;18.50;99.90;;;;;;4951250;28;20051;-37
2022/06/03 11:17:20;;;;;;;5.47;1.73;;;18.60;99.90;;;;;;4949139;28;20047;-37
2022/06/03 11:19:55;;;;;;;2.70;1.52;;;18.60;99.90;;;;;;4958973;28;20398;-37
2022/06/03 11:22:27;;;;;;;1.45;1.35;;;18.70;99.90;;;;;;4951735;28;20039;-37
2022/06/03 11:25:13;;;;;;;3.08;1.27;;;18.70;99.90;;;;;;4952725;29;20047;-37
2022/06/03 11:27:55;;;;;;;2.42;1.40;;;18.80;99.90;;;;;;4935772;28;20518;-37
2022/06/03 11:30:39;;;;;;;2.45;1.58;;;18.90;99.90;;;;;;4952219;29;20126;-37
2022/06/03 11:33:23;;;;;;;2.67;1.55;;;19.00;99.90;;;;;;4962101;28;20050;-37
2022/06/03 11:36:00;;;;;;;2.53;1.50;;;19.10;99.90;;;;;;4950107;29;20063;-36
2022/06/03 11:38:41;;;;;;;3.63;1.30;;;19.10;99.90;;;;;;4938024;28;20047;-37
2022/06/03 11:41:21;;;;;;;3.83;1.63;;;19.20;99.90;;;;;;4962470;28;20058;-37
2022/06/03 11:44:17;;;;;;;2.10;1.30;;;19.30;99.90;;;;;;4955044;28;20081;-37
2022/06/03 11:46:52;;;;;;;3.75;1.50;;;19.40;99.90;;;;;;4942002;28;20532;-37
2022/06/03 11:49:20;;;;;;;3.90;1.70;;;19.50;99.90;;;;;;4950773;28;20451;-37
2022/06/03 11:51:46;;;;;;;2.88;1.50;;;19.60;99.90;;;;;;4949531;28;20055;-37
2022/06/03 11:54:15;;;;;;;1.50;1.40;;;19.70;99.90;;;;;;4945773;28;20471;-37
2022/06/03 11:56:43;;;;;;;3.03;1.27;;;19.70;99.90;;;;;;4934793;28;20043;-37
2022/06/03 11:59:22;;;;;;;4.30;1.40;;;19.80;99.90;;;;;;4948266;28;20291;-37
2022/06/03 12:01:52;;;;;;;2.55;1.40;;;19.80;99.90;;;;;;4946332;29;20059;-37
2022/06/03 12:04:20;;;;;;;3.20;1.40;;;19.90;99.90;;;;;;4943925;28;20376;-37
2022/06/03 12:07:05;;;;;;;2.60;1.20;;;20.00;99.90;;;;;;4931418;28;20051;-37
2022/06/03 12:09:47;;;;;;;3.40;1.25;;;20.10;99.90;;;;;;4945870;28;20506;-37
2022/06/03 12:15:30;;;;;;;5.00;1.80;;;20.20;99.90;;;;;;4946030;28;20303;-37
2022/06/03 12:18:39;;;;;;;2.90;1.45;;;20.30;99.90;;;;;;4924677;28;20130;-37
2022/06/03 12:21:13;;;;;;;2.42;1.35;;;20.40;99.90;;;;;;4944451;29;20049;-37
2022/06/03 12:23:38;;;;;;;3.38;1.23;;;20.50;99.90;;;;;;4946827;28;20130;-37
2022/06/03 12:26:12;;;;;;;4.88;1.40;;;20.50;99.90;;;;;;4944206;28;20094;-37
2022/06/03 12:28:41;;;;;;;4.38;1.60;;;20.60;99.90;;;;;;4940644;28;20561;-37
2022/06/03 12:31:15;;;;;;;2.17;1.20;;;20.70;99.90;;;;;;4947159;28;20051;-37
2022/06/03 12:34:09;;;;;;;4.70;1.85;;;20.70;99.90;;;;;;4946173;28;20992;-37
2022/06/03 12:36:47;;;;;;;2.92;1.23;;;20.80;99.90;;;;;;4932852;28;20063;-37
2022/06/03 12:39:21;;;;;;;2.15;1.40;;;20.80;99.90;;;;;;4935072;29;20126;-37
2022/06/03 12:41:47;;;;;;;3.97;1.30;;;20.80;99.90;;;;;;4944301;28;20043;-37
2022/06/03 12:44:38;;;;;;;3.17;1.13;;;20.80;99.90;;;;;;4945037;28;20050;-37
2022/06/03 12:47:33;;;;;;;4.60;1.40;;;20.90;99.90;;;;;;4931459;28;20523;-40
2022/06/03 12:50:05;;;;;;;3.22;0.98;;;21.00;99.90;;;;;;4946002;29;20063;-37
2022/06/03 12:52:31;;;;;;;2.72;1.00;;;21.00;99.90;;;;;;4946521;28;20141;-37
2022/06/03 12:55:17;;;;;;;2.45;0.90;;;21.10;99.90;;;;;;4946301;28;20103;-37
2022/06/03 12:57:51;;;;;;;3.00;0.70;;;21.10;99.90;;;;;;4930859;28;20047;-37
2022/06/03 13:00:29;;;;;;;2.85;0.80;;;21.20;99.90;;;;;;4944642;29;20411;-37
2022/06/03 13:03:03;;;;;;;2.92;1.20;;;21.20;99.90;;;;;;4944818;28;20059;-37
2022/06/03 13:05:43;;;;;;;2.13;0.68;;;21.30;99.90;;;;;;4944073;29;20174;-37
2022/06/03 13:08:27;;;;;;;2.85;1.00;;;21.30;99.90;;;;;;4928219;28;20058;-37
2022/06/03 13:10:59;;;;;;;3.03;0.68;;;21.40;99.90;;;;;;4939264;29;20505;-37
2022/06/03 13:13:28;;;;;;;2.25;0.95;;;21.50;99.90;;;;;;4938427;28;20172;-37
2022/06/03 13:15:54;;;;;;;1.90;0.40;;;21.50;99.90;;;;;;4935572;29;20142;-37
2022/06/03 13:18:56;;;;;;;2.05;0.65;;;21.60;99.90;;;;;;4928780;28;20051;-37
2022/06/03 13:21:29;;;;;;;4.10;0.50;;;21.70;99.90;;;;;;4945359;28;20138;-37
2022/06/03 13:24:19;;;;;;;2.15;0.50;;;21.80;99.90;;;;;;4943530;28;20414;-37
2022/06/03 13:26:48;;;;;;;3.67;0.50;;;21.80;99.90;;;;;;4923057;28;20031;-37
2022/06/03 13:29:49;;;;;;;3.35;0.47;;;21.80;99.90;;;;;;4934037;28;20059;-37
2022/06/03 13:32:34;;;;;;;2.70;0.63;;;21.80;99.90;;;;;;4934209;28;20078;-37
2022/06/03 13:35:15;;;;;;;2.28;0.70;;;21.90;99.90;;;;;;4933645;29;20072;-37
2022/06/03 13:37:50;;;;;;;1.35;0.43;;;21.80;99.90;;;;;;4923291;29;20051;-37
2022/06/03 13:40:24;;;;;;;2.17;0.43;;;21.80;99.90;;;;;;4943632;28;20222;-37
2022/06/03 13:43:03;;;;;;;1.90;0.40;;;21.80;99.90;;;;;;4931278;29;20106;-37
2022/06/03 13:45:46;;;;;;;1.55;0.30;;;21.80;99.90;;;;;;4942938;29;20490;-37
2022/06/03 13:48:28;;;;;;;2.20;0.55;;;21.80;99.90;;;;;;4923104;28;20047;-37
2022/06/03 13:50:54;;;;;;;2.65;0.60;;;21.80;99.90;;;;;;4945182;28;20063;-37
2022/06/03 13:53:32;;;;;;;8.48;0.70;;;21.90;99.90;;;;;;4925896;28;20058;-37
2022/06/03 13:56:05;;;;;;;1.23;0.50;;;21.90;99.90;;;;;;4944263;29;20129;-37
2022/06/03 13:58:40;;;;;;;1.65;0.47;;;21.90;99.90;;;;;;4928992;28;20569;-37
2022/06/03 14:01:40;;;;;;;0.82;0.25;;;21.90;99.90;;;;;;4943191;29;20577;-37
2022/06/03 14:04:15;;;;;;;3.25;0.20;;;22.00;99.90;;;;;;4942478;28;20051;-37
2022/06/03 14:07:02;;;;;;;0.88;0.30;;;22.00;99.90;;;;;;4929253;28;20704;-37
2022/06/03 14:09:48;;;;;;;4.05;0.40;;;22.00;99.90;;;;;;4942011;28;20061;-37
2022/06/03 14:12:26;;;;;;;1.85;0.40;;;22.00;99.90;;;;;;4941853;28;20069;-37
2022/06/03 14:15:17;;;;;;;2.08;0.30;;;22.10;99.90;;;;;;4939266;29;20676;-37
2022/06/03 14:17:45;;;;;;;2.15;0.50;;;22.10;99.80;;;;;;4925726;28;20122;-37
2022/06/03 14:20:25;;;;;;;2.42;0.55;;;22.20;99.90;;;;;;4939388;29;20130;-37
2022/06/03 14:23:14;;;;;;;1.35;0.20;;;22.30;99.50;;;;;;4940665;28;20039;-37
2022/06/03 14:26:01;;;;;;;4.40;0.45;;;22.40;99.70;;;;;;4938915;29;20137;-37
2022/06/03 14:28:36;;;;;;;1.10;0.17;;;22.40;98.70;;;;;;4919979;28;20078;-37
2022/06/03 14:31:46;;;;;;;0.80;0.20;;;22.30;98.90;;;;;;4937114;29;20122;-37
2022/06/03 14:34:17;;;;;;;1.40;0.30;;;22.30;98.30;;;;;;4933245;28;20048;-37
2022/06/03 14:36:47;;;;;;;1.92;0.20;;;22.30;98.60;;;;;;4930470;28;20118;-37
2022/06/03 14:39:37;;;;;;;2.40;0.40;;;22.20;98.00;;;;;;4937863;28;20160;-37